Time;durP1;ratioP1;P1;durP2;ratioP2;P2;SDS_P1;SDS_P2;PMS_P1;PMS_P2;Temp;Humidity;BMP_temperature;BMP_pressure;BME280_temperature;BME280_humidity;BME280_pressure;Samples;Min_cycle;Max_cycle;Signal;HPM_P1;HPM_P2
2023/07/04 00:01:00;;;;;;;21.53;3.83;;;16.90;99.90;;;;;;7287970;19;20655;-79
2023/07/04 00:03:27;;;;;;;21.07;3.67;;;16.90;99.90;;;;;;7288515;19;20307;-79
2023/07/04 00:05:54;;;;;;;26.43;3.80;;;17.00;99.90;;;;;;7287205;19;20202;-78
2023/07/04 00:08:21;;;;;;;19.33;4.00;;;16.90;99.90;;;;;;7288160;19;20263;-78
2023/07/04 00:10:47;;;;;;;20.37;3.23;;;16.90;99.90;;;;;;7286994;19;20216;-79
2023/07/04 00:13:14;;;;;;;22.70;3.90;;;16.80;99.90;;;;;;7286891;19;20286;-78
2023/07/04 00:15:50;;;;;;;22.00;3.63;;;16.80;99.90;;;;;;7284767;19;20188;-76
2023/07/04 00:18:20;;;;;;;19.27;3.30;;;16.80;99.90;;;;;;7286696;19;20199;-78
2023/07/04 00:20:54;;;;;;;20.07;3.10;;;16.80;99.90;;;;;;7287593;19;20195;-79
2023/07/04 00:23:24;;;;;;;21.03;4.00;;;16.70;99.90;;;;;;7287720;19;20196;-78
2023/07/04 00:25:52;;;;;;;20.63;4.00;;;16.70;99.90;;;;;;7286950;19;20985;-78
2023/07/04 00:28:18;;;;;;;19.40;3.23;;;16.80;99.90;;;;;;7287686;19;21010;-78
2023/07/04 00:30:45;;;;;;;22.67;3.80;;;16.80;99.90;;;;;;7286762;19;20255;-79
2023/07/04 00:33:13;;;;;;;23.23;3.87;;;16.80;99.90;;;;;;7286193;19;20621;-78
2023/07/04 00:35:39;;;;;;;15.60;3.37;;;16.80;99.90;;;;;;7285251;19;20202;-79
2023/07/04 00:38:05;;;;;;;17.63;3.80;;;16.70;99.90;;;;;;7289744;19;20177;-79
2023/07/04 00:40:31;;;;;;;18.50;3.70;;;16.60;99.90;;;;;;7308648;19;20204;-78
2023/07/04 00:43:03;;;;;;;28.07;4.40;;;16.50;99.90;;;;;;7286806;19;20185;-78
2023/07/04 00:45:43;;;;;;;19.23;3.57;;;16.60;99.90;;;;;;7287699;19;20207;-79
2023/07/04 00:48:14;;;;;;;22.47;4.10;;;16.70;99.90;;;;;;7184654;19;2004775;-78
2023/07/04 00:50:46;;;;;;;23.37;4.20;;;16.70;99.90;;;;;;7285904;19;20202;-79
2023/07/04 00:53:14;;;;;;;21.57;3.67;;;16.60;99.90;;;;;;7286634;19;20188;-77
2023/07/04 00:55:45;;;;;;;23.53;3.90;;;16.60;99.90;;;;;;7285613;19;20206;-78
2023/07/04 00:58:10;;;;;;;23.70;3.73;;;16.50;99.90;;;;;;7286352;19;20213;-78
2023/07/04 01:00:37;;;;;;;19.57;3.47;;;16.50;99.90;;;;;;7286722;19;20180;-77
2023/07/04 01:03:06;;;;;;;15.67;3.40;;;16.50;99.90;;;;;;7306776;19;20722;-78
2023/07/04 01:05:42;;;;;;;17.93;3.93;;;16.50;99.90;;;;;;7287432;19;20192;-78
2023/07/04 01:08:19;;;;;;;18.50;3.90;;;16.60;99.90;;;;;;7182651;19;2004389;-78
2023/07/04 01:10:47;;;;;;;24.77;3.97;;;16.60;99.90;;;;;;7285532;19;20647;-79
2023/07/04 01:13:37;;;;;;;22.00;3.73;;;16.50;99.90;;;;;;7285352;19;20222;-79
2023/07/04 01:16:18;;;;;;;21.83;3.73;;;16.50;99.90;;;;;;7283296;19;20203;-78
2023/07/04 01:18:49;;;;;;;17.47;3.57;;;16.50;99.90;;;;;;7182275;19;2004738;-78
2023/07/04 01:21:17;;;;;;;25.40;4.20;;;16.50;99.90;;;;;;7284950;19;20209;-78
2023/07/04 01:24:24;;;;;;;19.10;3.67;;;16.50;99.90;;;;;;7285395;19;20236;-78
2023/07/04 01:26:50;;;;;;;26.77;3.87;;;16.50;99.90;;;;;;7182493;19;2006181;-78
2023/07/04 01:29:18;;;;;;;23.03;3.83;;;16.40;99.90;;;;;;7285483;19;20188;-79
2023/07/04 01:31:45;;;;;;;24.53;4.07;;;16.30;99.90;;;;;;7286296;19;20226;-78
2023/07/04 01:34:12;;;;;;;17.20;3.77;;;16.30;99.90;;;;;;7285793;19;20189;-79
2023/07/04 01:36:41;;;;;;;23.47;3.63;;;16.30;99.90;;;;;;7285832;19;20316;-78
2023/07/04 01:39:14;;;;;;;17.97;3.50;;;16.20;99.90;;;;;;7284287;19;20193;-78
2023/07/04 01:41:45;;;;;;;21.20;4.00;;;16.20;99.90;;;;;;7284776;19;20631;-78
2023/07/04 01:44:12;;;;;;;19.37;3.90;;;16.20;99.90;;;;;;7285774;19;20197;-78
2023/07/04 01:46:38;;;;;;;21.53;3.77;;;16.20;99.90;;;;;;7283110;19;20668;-79
2023/07/04 01:49:04;;;;;;;16.07;3.53;;;16.30;99.90;;;;;;7301435;19;20196;-78
2023/07/04 01:51:37;;;;;;;24.07;4.27;;;16.30;99.90;;;;;;7299690;19;20210;-79
2023/07/04 01:54:04;;;;;;;26.03;3.43;;;16.20;99.90;;;;;;7285591;19;20200;-79
2023/07/04 01:56:31;;;;;;;29.47;3.87;;;16.20;99.90;;;;;;7285519;19;20188;-79
2023/07/04 01:58:57;;;;;;;28.33;4.03;;;16.20;99.90;;;;;;7284515;19;20279;-78
2023/07/04 02:01:24;;;;;;;20.33;3.87;;;16.10;99.90;;;;;;7283457;19;20192;-79
2023/07/04 02:03:51;;;;;;;24.17;4.10;;;16.10;99.90;;;;;;7285586;19;20308;-79
2023/07/04 02:06:17;;;;;;;19.30;3.23;;;16.00;99.90;;;;;;7283116;19;20189;-79
2023/07/04 02:08:43;;;;;;;28.47;3.97;;;15.90;99.90;;;;;;7283245;19;20201;-78
2023/07/04 02:11:09;;;;;;;19.60;3.60;;;16.00;99.90;;;;;;7284496;19;20666;-78
2023/07/04 02:13:35;;;;;;;24.43;3.63;;;16.00;99.90;;;;;;7293426;19;20273;-78
2023/07/04 02:16:00;;;;;;;19.23;3.43;;;16.00;99.90;;;;;;7302387;19;20192;-79
2023/07/04 02:18:27;;;;;;;22.10;4.23;;;16.00;99.90;;;;;;7284446;19;20302;-79
2023/07/04 02:20:52;;;;;;;19.57;3.97;;;16.00;99.90;;;;;;7281454;19;20195;-78
2023/07/04 02:23:18;;;;;;;21.40;3.80;;;16.00;99.90;;;;;;7283358;19;20674;-78
2023/07/04 02:25:44;;;;;;;22.20;3.60;;;15.90;99.90;;;;;;7285564;19;20205;-78
2023/07/04 02:28:10;;;;;;;26.17;4.43;;;15.90;99.90;;;;;;7282785;19;20195;-77
2023/07/04 02:30:37;;;;;;;15.77;3.87;;;15.90;99.90;;;;;;7278718;19;20192;-77
2023/07/04 02:33:03;;;;;;;23.50;4.30;;;15.90;99.90;;;;;;7305478;19;20665;-78
2023/07/04 02:35:30;;;;;;;26.77;4.20;;;15.90;99.90;;;;;;7281934;19;20195;-78
2023/07/04 02:37:57;;;;;;;15.97;3.97;;;15.90;99.90;;;;;;7282730;19;20188;-78
2023/07/04 02:40:24;;;;;;;21.77;3.93;;;15.90;99.90;;;;;;7281290;19;21322;-78
2023/07/04 02:42:50;;;;;;;22.13;4.23;;;15.80;99.90;;;;;;7281605;19;20242;-78
2023/07/04 02:45:16;;;;;;;24.47;4.40;;;15.70;99.90;;;;;;7281678;19;20191;-79
2023/07/04 02:47:42;;;;;;;19.57;4.33;;;15.70;99.90;;;;;;7281947;19;20307;-78
2023/07/04 02:50:15;;;;;;;17.73;4.40;;;15.60;99.90;;;;;;7281956;19;20246;-78
2023/07/04 02:52:41;;;;;;;20.60;4.03;;;15.70;99.90;;;;;;7281844;19;20615;-78
2023/07/04 02:55:07;;;;;;;21.27;4.33;;;15.70;99.90;;;;;;7279679;19;20260;-78
2023/07/04 02:57:35;;;;;;;20.00;3.97;;;15.70;99.90;;;;;;7286007;19;20706;-78
2023/07/04 03:00:01;;;;;;;17.37;3.90;;;15.70;99.90;;;;;;7304695;19;20266;-78
2023/07/04 03:02:30;;;;;;;24.63;4.17;;;15.70;99.90;;;;;;7282760;19;20189;-78
2023/07/04 03:04:57;;;;;;;18.57;4.43;;;15.60;99.90;;;;;;7282819;19;20185;-78
2023/07/04 03:07:26;;;;;;;23.43;4.57;;;15.60;99.90;;;;;;7281391;19;20196;-78
2023/07/04 03:09:52;;;;;;;23.40;4.20;;;15.60;99.90;;;;;;7282189;19;20220;-79
2023/07/04 03:12:22;;;;;;;24.07;4.67;;;15.50;99.90;;;;;;7281373;19;20197;-79
2023/07/04 03:14:50;;;;;;;25.40;5.33;;;15.60;99.90;;;;;;7287082;19;20203;-78
2023/07/04 03:17:17;;;;;;;19.53;3.77;;;15.50;99.90;;;;;;7282646;19;20191;-78
2023/07/04 03:19:45;;;;;;;19.10;4.07;;;15.60;99.90;;;;;;7286624;19;20187;-78
2023/07/04 03:22:11;;;;;;;25.27;4.83;;;15.60;99.90;;;;;;7288508;19;20188;-78
2023/07/04 03:24:37;;;;;;;27.47;5.00;;;15.60;99.90;;;;;;7287506;19;20189;-78
2023/07/04 03:27:04;;;;;;;25.53;4.17;;;15.60;99.90;;;;;;7310598;19;20208;-79
2023/07/04 03:29:31;;;;;;;23.63;4.43;;;15.60;99.90;;;;;;7289068;19;20177;-80
2023/07/04 03:31:57;;;;;;;30.40;4.80;;;15.60;99.90;;;;;;7288138;19;20188;-79
2023/07/04 03:34:24;;;;;;;27.57;5.07;;;15.60;99.90;;;;;;7288374;19;20267;-79
2023/07/04 03:36:50;;;;;;;27.87;4.60;;;15.60;99.90;;;;;;7288443;19;20188;-78
2023/07/04 03:39:16;;;;;;;25.83;5.17;;;15.60;99.90;;;;;;7288933;19;20191;-78
2023/07/04 03:41:42;;;;;;;27.50;4.47;;;15.70;99.90;;;;;;7288615;19;20181;-79
2023/07/04 03:44:08;;;;;;;28.93;4.60;;;15.70;99.90;;;;;;7287915;19;20203;-78
2023/07/04 03:46:33;;;;;;;25.07;5.07;;;15.70;99.90;;;;;;7309453;19;20252;-78
2023/07/04 03:48:59;;;;;;;23.97;4.70;;;15.80;99.90;;;;;;7288641;19;20626;-78
2023/07/04 03:51:25;;;;;;;20.60;4.97;;;15.70;99.90;;;;;;7287520;19;20201;-79
2023/07/04 03:53:51;;;;;;;32.37;5.37;;;15.70;99.90;;;;;;7288167;19;20191;-79
2023/07/04 03:56:16;;;;;;;20.43;4.33;;;15.70;99.90;;;;;;7287195;19;20546;-78
2023/07/04 03:58:42;;;;;;;27.63;4.43;;;15.70;99.90;;;;;;7288465;19;20302;-78
2023/07/04 04:01:08;;;;;;;20.20;3.73;;;15.70;99.90;;;;;;7287991;19;20181;-78
2023/07/04 04:03:37;;;;;;;22.27;4.10;;;15.60;99.90;;;;;;7309429;19;20203;-78
2023/07/04 04:06:07;;;;;;;21.07;4.70;;;15.60;99.90;;;;;;7288504;19;20200;-78
2023/07/04 04:08:33;;;;;;;22.60;4.83;;;15.50;99.90;;;;;;7288724;19;20199;-79
2023/07/04 04:10:59;;;;;;;26.67;5.30;;;15.60;99.90;;;;;;7287859;19;20187;-78
2023/07/04 04:13:26;;;;;;;28.77;5.27;;;15.70;99.90;;;;;;7289491;19;20189;-78
2023/07/04 04:15:52;;;;;;;20.17;4.63;;;15.80;99.90;;;;;;7287514;19;20184;-79
2023/07/04 04:18:18;;;;;;;21.43;4.77;;;15.70;99.90;;;;;;7288175;19;20194;-77
2023/07/04 04:20:44;;;;;;;24.60;4.80;;;15.80;99.90;;;;;;7288120;19;20639;-78
2023/07/04 04:23:10;;;;;;;26.93;5.17;;;15.80;99.90;;;;;;7286656;19;20192;-78
2023/07/04 04:25:38;;;;;;;20.57;4.40;;;15.90;99.90;;;;;;7288611;19;20513;-77
2023/07/04 04:28:05;;;;;;;24.50;5.23;;;16.00;99.90;;;;;;7310338;19;20198;-78
2023/07/04 04:30:30;;;;;;;24.97;4.93;;;15.90;99.90;;;;;;7283121;19;20186;-78
2023/07/04 04:32:57;;;;;;;27.60;4.30;;;16.00;99.90;;;;;;7289001;19;20666;-79
2023/07/04 04:35:25;;;;;;;22.87;4.47;;;16.10;99.90;;;;;;7288068;19;20185;-78
2023/07/04 04:37:51;;;;;;;27.77;4.43;;;16.30;99.90;;;;;;7287812;19;20641;-78
2023/07/04 04:40:17;;;;;;;17.73;4.10;;;16.40;99.90;;;;;;7287485;19;20240;-79
2023/07/04 04:42:43;;;;;;;24.10;4.17;;;16.80;99.90;;;;;;7289295;19;20185;-78
2023/07/04 04:45:11;;;;;;;23.07;4.53;;;17.10;99.90;;;;;;7287545;19;20183;-77
2023/07/04 04:47:39;;;;;;;26.93;4.10;;;17.60;99.90;;;;;;7288102;19;20640;-77
2023/07/04 04:50:06;;;;;;;24.13;4.03;;;17.90;99.90;;;;;;7303523;19;20183;-77
2023/07/04 04:52:32;;;;;;;19.93;4.00;;;18.40;99.90;;;;;;7309668;19;20401;-79
2023/07/04 04:55:02;;;;;;;19.13;4.03;;;18.90;99.90;;;;;;7286819;19;20188;-78
2023/07/04 04:57:28;;;;;;;21.87;4.00;;;19.10;99.90;;;;;;7287591;19;20188;-78
2023/07/04 04:59:59;;;;;;;16.63;3.77;;;19.30;99.90;;;;;;7287311;19;20221;-78
2023/07/04 05:02:25;;;;;;;19.13;3.63;;;20.00;99.90;;;;;;7286102;19;20202;-78
2023/07/04 05:04:51;;;;;;;20.00;3.83;;;20.70;99.90;;;;;;7286704;19;20300;-78
2023/07/04 05:07:18;;;;;;;18.37;3.57;;;21.40;99.90;;;;;;7286646;19;20190;-77
2023/07/04 05:09:44;;;;;;;15.53;3.20;;;21.70;99.90;;;;;;7285528;19;20299;-78
2023/07/04 05:12:09;;;;;;;21.67;4.07;;;22.40;99.90;;;;;;7285107;19;20256;-78
2023/07/04 05:14:35;;;;;;;16.90;3.33;;;22.80;99.90;;;;;;7292268;19;20184;-79
2023/07/04 05:17:01;;;;;;;17.77;3.27;;;23.20;99.90;;;;;;7307392;19;20277;-79
2023/07/04 05:19:27;;;;;;;16.87;3.30;;;23.80;99.90;;;;;;7285989;19;20703;-78
2023/07/04 05:21:52;;;;;;;13.67;3.20;;;24.00;99.90;;;;;;7284496;19;20529;-79
2023/07/04 05:24:18;;;;;;;19.33;4.00;;;24.10;99.90;;;;;;7285706;19;20189;-77
2023/07/04 05:26:44;;;;;;;19.13;3.77;;;24.60;99.90;;;;;;7284987;19;20313;-78
2023/07/04 05:29:09;;;;;;;18.10;3.80;;;24.60;99.90;;;;;;7283933;19;20224;-78
2023/07/04 05:31:35;;;;;;;16.37;3.40;;;23.80;99.90;;;;;;7295304;19;20261;-78
2023/07/04 05:34:01;;;;;;;17.40;3.63;;;23.90;99.90;;;;;;7305083;19;20184;-79
2023/07/04 05:36:29;;;;;;;16.53;3.20;;;23.90;99.90;;;;;;7284755;19;20556;-78
2023/07/04 05:38:59;;;;;;;17.90;4.03;;;24.20;99.90;;;;;;7284369;19;20206;-78
2023/07/04 05:41:27;;;;;;;17.53;3.70;;;24.70;99.90;;;;;;7284427;19;20178;-78
2023/07/04 05:44:04;;;;;;;19.70;4.07;;;24.60;99.90;;;;;;7285022;19;21754;-77
2023/07/04 05:46:30;;;;;;;19.00;3.53;;;25.00;99.90;;;;;;7282041;19;20188;-78
2023/07/04 05:48:57;;;;;;;22.33;3.80;;;25.10;99.90;;;;;;7285024;19;20186;-79
2023/07/04 05:51:23;;;;;;;20.80;4.20;;;25.70;99.90;;;;;;7285486;19;20197;-79
2023/07/04 05:53:52;;;;;;;20.10;3.70;;;25.60;99.90;;;;;;7286367;19;20197;-79
2023/07/04 05:56:24;;;;;;;19.00;3.93;;;26.00;99.90;;;;;;7283728;19;20209;-78
2023/07/04 05:58:55;;;;;;;19.00;3.57;;;25.90;99.90;;;;;;7284883;19;20185;-79
2023/07/04 06:01:33;;;;;;;20.63;4.20;;;26.20;99.90;;;;;;7283751;19;20189;-80
2023/07/04 06:03:59;;;;;;;16.77;4.00;;;26.10;99.90;;;;;;7284814;19;20188;-78
2023/07/04 06:06:43;;;;;;;20.17;4.07;;;26.70;99.90;;;;;;7283867;19;20178;-78
2023/07/04 06:09:12;;;;;;;22.47;3.87;;;27.20;99.90;;;;;;7263181;19;20609;-78
2023/07/04 06:11:43;;;;;;;19.13;4.13;;;26.30;99.90;;;;;;7284267;19;20264;-79
2023/07/04 06:14:09;;;;;;;19.63;3.97;;;26.30;99.90;;;;;;7284755;19;20774;-79
2023/07/04 06:16:35;;;;;;;16.25;3.53;;;26.70;99.90;;;;;;7299088;19;20189;-78
2023/07/04 06:19:02;;;;;;;17.27;3.88;;;26.70;99.90;;;;;;7304934;19;20208;-79
2023/07/04 06:21:27;;;;;;;20.15;3.90;;;26.90;99.90;;;;;;7284372;19;20184;-80
2023/07/04 06:23:56;;;;;;;17.05;3.67;;;26.80;99.90;;;;;;7283990;19;20672;-80
2023/07/04 06:26:22;;;;;;;17.80;4.10;;;26.60;99.90;;;;;;7283435;19;20548;-80
2023/07/04 06:28:49;;;;;;;17.65;4.00;;;26.10;99.90;;;;;;7284825;19;20639;-79
2023/07/04 06:31:16;;;;;;;26.00;4.00;;;25.10;99.90;;;;;;7284118;19;20647;-79
2023/07/04 06:33:42;;;;;;;20.05;3.95;;;24.10;99.90;;;;;;7283058;19;20184;-79
2023/07/04 06:36:10;;;;;;;17.27;3.97;;;24.20;99.90;;;;;;7284851;19;20180;-78
2023/07/04 06:38:35;;;;;;;18.88;3.70;;;24.90;99.90;;;;;;7293697;19;20542;-80
2023/07/04 06:41:03;;;;;;;17.40;4.07;;;25.50;99.90;;;;;;7304404;19;20191;-82
2023/07/04 06:43:31;;;;;;;18.60;3.75;;;25.70;99.90;;;;;;7284176;19;20189;-81
2023/07/04 06:45:57;;;;;;;22.23;4.47;;;25.20;99.90;;;;;;7281269;19;20200;-76
2023/07/04 06:48:23;;;;;;;21.63;3.83;;;24.50;99.90;;;;;;7280468;19;20622;-77
2023/07/04 06:51:04;;;;;;;22.07;4.13;;;23.80;99.90;;;;;;7280056;19;20200;-75
2023/07/04 06:53:31;;;;;;;16.90;3.80;;;23.60;99.90;;;;;;7281042;19;20212;-76
2023/07/04 06:56:07;;;;;;;16.83;4.20;;;23.20;99.90;;;;;;7286989;19;20210;-76
2023/07/04 06:58:34;;;;;;;20.63;4.63;;;23.70;99.90;;;;;;7286840;19;20676;-76
2023/07/04 07:01:02;;;;;;;22.33;3.97;;;24.00;99.90;;;;;;7287094;19;20184;-75
2023/07/04 07:03:29;;;;;;;17.43;4.13;;;24.00;99.90;;;;;;7285796;19;20200;-77
2023/07/04 07:05:55;;;;;;;16.03;3.57;;;24.40;99.90;;;;;;7285308;19;20209;-76
2023/07/04 07:08:20;;;;;;;13.13;3.47;;;25.20;99.90;;;;;;7285954;19;20208;-75
2023/07/04 07:10:57;;;;;;;18.00;3.75;;;25.50;99.90;;;;;;7286492;19;20189;-76
2023/07/04 07:13:24;;;;;;;19.70;3.83;;;26.80;99.90;;;;;;7284500;19;20193;-76
2023/07/04 07:15:50;;;;;;;15.90;3.75;;;26.90;99.90;;;;;;7286400;19;20199;-77
2023/07/04 07:18:16;;;;;;;18.65;3.47;;;25.80;99.90;;;;;;7285152;19;20189;-77
2023/07/04 07:20:42;;;;;;;18.58;4.15;;;26.50;99.90;;;;;;7285464;19;20803;-77
2023/07/04 07:23:09;;;;;;;12.02;2.83;;;27.40;99.90;;;;;;7285181;19;20319;-77
2023/07/04 07:25:35;;;;;;;15.10;3.47;;;27.70;99.90;;;;;;7301908;19;20199;-76
2023/07/04 07:28:01;;;;;;;16.17;3.70;;;28.30;99.90;;;;;;7305979;19;20208;-76
2023/07/04 07:30:27;;;;;;;19.55;4.03;;;27.70;99.90;;;;;;7284527;19;20184;-76
2023/07/04 07:32:53;;;;;;;15.50;3.33;;;26.50;99.90;;;;;;7283506;19;20200;-76
2023/07/04 07:35:18;;;;;;;19.92;4.00;;;25.70;99.90;;;;;;7284849;19;20193;-77
2023/07/04 07:37:44;;;;;;;17.45;3.70;;;25.20;99.90;;;;;;7285123;19;20560;-77
2023/07/04 07:40:11;;;;;;;15.07;3.67;;;25.90;99.90;;;;;;7284433;19;20548;-77
2023/07/04 07:42:36;;;;;;;15.48;3.05;;;26.40;99.90;;;;;;7284582;19;20656;-76
2023/07/04 07:45:02;;;;;;;16.40;4.38;;;27.90;99.90;;;;;;7306261;19;20184;-75
2023/07/04 07:47:28;;;;;;;15.45;3.53;;;28.50;99.90;;;;;;7284473;19;21019;-75
2023/07/04 07:49:54;;;;;;;14.50;3.70;;;29.00;99.90;;;;;;7285495;19;21561;-77
2023/07/04 07:52:21;;;;;;;14.05;3.53;;;29.00;99.90;;;;;;7284573;19;20982;-76
2023/07/04 07:54:46;;;;;;;16.63;3.50;;;29.00;99.90;;;;;;7285284;19;20204;-76
2023/07/04 07:57:12;;;;;;;16.17;3.80;;;27.50;99.90;;;;;;7285539;19;20193;-76
2023/07/04 07:59:38;;;;;;;15.00;3.25;;;27.90;99.90;;;;;;7284755;19;20185;-76
2023/07/04 08:02:04;;;;;;;12.10;3.30;;;28.20;99.90;;;;;;7305677;19;20724;-76
2023/07/04 08:04:30;;;;;;;15.77;3.50;;;29.40;99.90;;;;;;7285022;19;20214;-76
2023/07/04 08:06:55;;;;;;;13.00;3.05;;;28.80;99.90;;;;;;7284274;19;20182;-77
2023/07/04 08:09:21;;;;;;;13.45;3.38;;;29.70;99.90;;;;;;7283165;19;20610;-76
2023/07/04 08:11:48;;;;;;;14.60;3.10;;;30.10;98.60;;;;;;7285125;19;20197;-76
2023/07/04 08:14:15;;;;;;;13.35;3.10;;;30.80;97.60;;;;;;7284325;19;20268;-76
2023/07/04 08:16:47;;;;;;;14.45;3.10;;;31.00;96.00;;;;;;7283882;19;20192;-78
2023/07/04 08:19:14;;;;;;;14.13;3.17;;;31.50;95.60;;;;;;7283365;19;20253;-77
2023/07/04 08:21:40;;;;;;;15.77;3.25;;;30.30;94.80;;;;;;7284555;19;20648;-76
2023/07/04 08:24:10;;;;;;;11.88;3.30;;;28.90;96.30;;;;;;7291954;19;20290;-76
2023/07/04 08:26:38;;;;;;;11.65;3.03;;;28.40;97.50;;;;;;7289913;19;20192;-76
2023/07/04 08:29:05;;;;;;;13.85;3.60;;;27.50;98.30;;;;;;7304643;19;20197;-76
2023/07/04 08:31:31;;;;;;;15.57;3.30;;;26.70;99.90;;;;;;7284858;19;20198;-75
2023/07/04 08:33:57;;;;;;;14.05;3.33;;;26.30;99.90;;;;;;7283436;19;20181;-76
2023/07/04 08:36:22;;;;;;;15.00;3.33;;;25.40;99.90;;;;;;7284709;19;20203;-76
2023/07/04 08:38:50;;;;;;;15.47;3.97;;;24.50;99.90;;;;;;7284887;19;20274;-75
2023/07/04 08:41:28;;;;;;;17.80;3.33;;;24.00;99.90;;;;;;7283292;19;20189;-76
2023/07/04 08:44:35;;;;;;;17.37;3.77;;;24.00;99.90;;;;;;7283528;19;20191;-76
2023/07/04 08:47:01;;;;;;;18.40;3.40;;;25.00;99.90;;;;;;7180463;19;2004953;-76
2023/07/04 08:49:43;;;;;;;15.70;3.85;;;25.00;99.90;;;;;;7283529;19;20996;-76
2023/07/04 08:52:11;;;;;;;15.57;3.50;;;24.60;99.90;;;;;;7262296;19;20665;-75
2023/07/04 08:54:37;;;;;;;15.80;3.57;;;24.80;99.90;;;;;;7283365;19;20185;-76
2023/07/04 08:57:26;;;;;;;14.63;3.33;;;24.60;99.90;;;;;;7305439;19;20192;-77
2023/07/04 09:00:01;;;;;;;14.57;3.53;;;24.50;99.90;;;;;;7180168;19;2005014;-77
2023/07/04 09:02:56;;;;;;;13.18;3.80;;;25.90;99.90;;;;;;7282598;19;20695;-76
2023/07/04 09:05:48;;;;;;;14.85;3.40;;;26.30;99.90;;;;;;7178733;19;2006227;-77
2023/07/04 09:08:20;;;;;;;14.05;3.35;;;25.70;99.90;;;;;;7179203;19;2004606;-77
2023/07/04 09:10:49;;;;;;;13.15;3.42;;;26.30;99.90;;;;;;7280090;19;20193;-76
2023/07/04 09:13:21;;;;;;;13.55;3.63;;;28.10;99.90;;;;;;7279828;19;20377;-76
2023/07/04 09:15:47;;;;;;;12.52;3.20;;;28.00;99.90;;;;;;7281787;19;20192;-76
2023/07/04 09:18:42;;;;;;;15.63;3.47;;;28.30;99.90;;;;;;7283345;19;20196;-79
2023/07/04 09:21:16;;;;;;;13.38;3.17;;;30.30;99.90;;;;;;7261539;19;20189;-79
2023/07/04 09:23:44;;;;;;;14.60;3.50;;;32.30;96.10;;;;;;7286381;19;20185;-79
2023/07/04 09:26:14;;;;;;;13.80;3.88;;;32.50;95.30;;;;;;7286953;19;20552;-81
2023/07/04 09:28:43;;;;;;;18.02;3.95;;;31.80;91.80;;;;;;7285370;19;20707;-81
2023/07/04 09:31:25;;;;;;;14.90;3.83;;;31.10;91.90;;;;;;7285414;19;20197;-80
2023/07/04 09:33:53;;;;;;;13.52;4.22;;;29.60;94.60;;;;;;7285623;19;20196;-82
2023/07/04 09:36:21;;;;;;;13.68;3.75;;;28.70;96.00;;;;;;7286798;19;20189;-82
2023/07/04 09:38:54;;;;;;;14.65;4.03;;;27.70;97.00;;;;;;7286563;19;20193;-81
2023/07/04 09:41:27;;;;;;;12.25;3.75;;;27.10;97.90;;;;;;7286748;19;20189;-81
2023/07/04 09:43:55;;;;;;;12.98;3.67;;;27.80;99.20;;;;;;7286827;19;20215;-81
2023/07/04 09:46:26;;;;;;;12.90;3.30;;;28.10;96.90;;;;;;7286068;19;20189;-79
2023/07/04 09:48:54;;;;;;;12.02;3.67;;;28.30;97.20;;;;;;7287198;19;20217;-80
2023/07/04 09:51:26;;;;;;;16.15;3.80;;;28.20;96.30;;;;;;7285998;19;20207;-80
2023/07/04 09:54:09;;;;;;;14.80;3.90;;;28.40;98.10;;;;;;7285708;19;20193;-80
2023/07/04 09:56:36;;;;;;;13.48;3.83;;;29.20;95.60;;;;;;7280425;19;20197;-78
2023/07/04 09:59:23;;;;;;;14.27;3.50;;;29.50;95.30;;;;;;7306729;19;20652;-80
2023/07/04 10:01:53;;;;;;;11.07;3.63;;;29.80;94.40;;;;;;7183078;19;2005566;-80
2023/07/04 10:04:34;;;;;;;14.20;3.92;;;30.00;93.50;;;;;;7286216;19;20204;-81
2023/07/04 10:07:03;;;;;;;12.82;3.83;;;30.50;93.80;;;;;;7284943;19;20208;-80
2023/07/04 10:09:29;;;;;;;11.98;3.50;;;31.50;92.90;;;;;;7285398;19;20267;-81
2023/07/04 10:12:12;;;;;;;12.05;3.53;;;31.20;91.30;;;;;;7286724;19;21799;-81
2023/07/04 10:14:48;;;;;;;11.63;3.70;;;30.90;90.80;;;;;;7264674;19;20207;-80
2023/07/04 10:17:19;;;;;;;13.48;3.78;;;30.00;91.60;;;;;;7285181;19;20205;-80
2023/07/04 10:19:50;;;;;;;15.68;4.25;;;28.70;92.50;;;;;;7284583;19;20215;-80
2023/07/04 10:22:30;;;;;;;15.02;3.70;;;28.40;94.80;;;;;;7284792;19;20197;-81
2023/07/04 10:24:58;;;;;;;13.90;3.83;;;29.00;94.40;;;;;;7285602;19;20233;-81
2023/07/04 10:27:34;;;;;;;12.52;3.45;;;30.50;94.00;;;;;;7284265;19;20664;-81
2023/07/04 10:30:05;;;;;;;12.15;3.50;;;32.30;91.30;;;;;;7284759;19;20189;-80
2023/07/04 10:32:40;;;;;;;15.80;4.10;;;32.50;90.20;;;;;;7285463;19;20196;-81
2023/07/04 10:35:11;;;;;;;13.95;4.35;;;32.80;87.90;;;;;;7267867;19;20647;-80
2023/07/04 10:37:39;;;;;;;16.15;4.10;;;32.10;84.60;;;;;;7285730;19;20197;-79
2023/07/04 10:40:10;;;;;;;12.27;3.63;;;31.80;86.90;;;;;;7304405;19;20203;-78
2023/07/04 10:42:44;;;;;;;12.55;3.80;;;32.70;87.20;;;;;;7266528;19;20211;-80
2023/07/04 10:45:15;;;;;;;11.27;3.67;;;32.90;84.20;;;;;;7283070;19;20197;-80
2023/07/04 10:47:42;;;;;;;16.33;4.00;;;33.60;85.80;;;;;;7284263;19;20203;-82
2023/07/04 10:50:15;;;;;;;13.30;3.88;;;34.10;80.00;;;;;;7283608;19;20189;-79
2023/07/04 10:52:44;;;;;;;13.85;4.82;;;34.40;83.20;;;;;;7282762;19;20196;-81
2023/07/04 10:55:17;;;;;;;12.70;3.90;;;33.40;78.60;;;;;;7282661;19;20209;-81
2023/07/04 10:57:56;;;;;;;11.02;3.72;;;33.70;78.30;;;;;;7284469;19;20576;-81
2023/07/04 11:00:29;;;;;;;13.52;4.07;;;33.60;79.70;;;;;;7284672;19;20192;-81
2023/07/04 11:03:00;;;;;;;13.63;3.92;;;32.90;76.50;;;;;;7282990;19;20215;-80
2023/07/04 11:05:40;;;;;;;13.18;4.20;;;32.80;80.10;;;;;;7283079;19;20185;-80
2023/07/04 11:08:13;;;;;;;12.68;3.90;;;32.60;76.60;;;;;;7269955;19;20184;-80
2023/07/04 11:10:43;;;;;;;12.48;3.72;;;32.60;78.20;;;;;;7282530;19;20184;-79
2023/07/04 11:13:18;;;;;;;13.18;4.10;;;32.60;75.70;;;;;;7282097;19;20691;-80
2023/07/04 11:15:50;;;;;;;11.95;4.07;;;33.00;75.60;;;;;;7281276;19;20191;-80
2023/07/04 11:18:18;;;;;;;12.68;3.80;;;30.90;76.80;;;;;;7283946;19;20192;-80
2023/07/04 11:20:52;;;;;;;13.63;4.03;;;31.10;80.90;;;;;;7282534;19;20569;-80
2023/07/04 11:23:20;;;;;;;8.82;3.58;;;30.90;80.40;;;;;;7284464;19;20189;-82
2023/07/04 11:25:46;;;;;;;11.52;3.80;;;30.80;78.70;;;;;;7281528;19;20181;-80
2023/07/04 11:28:27;;;;;;;12.68;3.70;;;31.70;82.10;;;;;;7283547;19;20746;-80
2023/07/04 11:31:08;;;;;;;10.80;3.63;;;31.30;77.00;;;;;;7282089;19;20189;-81
2023/07/04 11:33:39;;;;;;;12.63;4.10;;;30.70;80.90;;;;;;7283312;19;20180;-81
2023/07/04 11:36:16;;;;;;;13.13;3.72;;;30.60;80.50;;;;;;7283886;19;20184;-81
2023/07/04 11:38:43;;;;;;;12.60;3.53;;;30.30;80.70;;;;;;7179588;19;2004550;-80
2023/07/04 11:41:09;;;;;;;10.90;4.18;;;30.90;80.30;;;;;;7288014;19;20211;-80
2023/07/04 11:43:43;;;;;;;10.65;4.00;;;30.60;78.90;;;;;;7310774;19;20184;-81
2023/07/04 11:46:24;;;;;;;10.85;3.53;;;30.00;80.70;;;;;;7267419;19;20204;-80
2023/07/04 11:48:54;;;;;;;13.05;3.80;;;29.40;82.20;;;;;;7288462;19;20652;-81
2023/07/04 11:51:22;;;;;;;14.18;3.85;;;28.50;83.20;;;;;;7288579;19;20191;-81
2023/07/04 11:54:00;;;;;;;15.05;4.57;;;28.50;86.80;;;;;;7289106;19;20192;-86
2023/07/04 11:56:28;;;;;;;13.82;3.95;;;28.10;84.00;;;;;;7289037;19;20204;-81
2023/07/04 11:59:18;;;;;;;12.80;4.03;;;27.90;83.50;;;;;;7289395;19;20195;-82
2023/07/04 12:01:55;;;;;;;12.95;3.25;;;27.80;86.40;;;;;;7185554;19;2004695;-81
2023/07/04 12:04:44;;;;;;;13.55;3.78;;;28.10;85.70;;;;;;7288717;19;20189;-80
2023/07/04 12:07:31;;;;;;;13.32;3.78;;;28.20;86.60;;;;;;7267571;19;20189;-80
2023/07/04 12:10:00;;;;;;;12.10;3.78;;;28.40;85.30;;;;;;7289217;19;21893;-81
2023/07/04 12:12:28;;;;;;;11.43;3.58;;;28.50;82.40;;;;;;7287676;19;20202;-81
2023/07/04 12:15:02;;;;;;;15.80;3.85;;;28.30;83.90;;;;;;7290085;19;20188;-80
2023/07/04 12:17:28;;;;;;;13.88;3.38;;;28.60;84.60;;;;;;7290509;19;20251;-80
2023/07/04 12:19:59;;;;;;;12.07;3.15;;;28.50;84.30;;;;;;7289794;19;20188;-80
2023/07/04 12:22:25;;;;;;;10.95;3.50;;;28.30;84.00;;;;;;7290178;19;20189;-81
2023/07/04 12:24:51;;;;;;;12.95;4.18;;;28.50;84.90;;;;;;7290053;19;20196;-81
2023/07/04 12:27:17;;;;;;;10.43;3.92;;;27.90;85.00;;;;;;7289020;19;20195;-81
2023/07/04 12:29:45;;;;;;;11.27;3.40;;;27.50;85.30;;;;;;7289200;19;20268;-80
2023/07/04 12:32:18;;;;;;;14.70;3.78;;;26.90;87.40;;;;;;7288457;19;20185;-79
2023/07/04 12:34:44;;;;;;;12.77;3.78;;;26.90;88.50;;;;;;7289303;19;20288;-80
2023/07/04 12:37:14;;;;;;;11.82;3.90;;;26.90;90.50;;;;;;7286754;19;20196;-79
2023/07/04 12:39:48;;;;;;;11.88;3.72;;;26.70;89.70;;;;;;7288136;19;20193;-79
2023/07/04 12:42:38;;;;;;;9.75;3.58;;;26.20;91.00;;;;;;7287504;19;20196;-79
2023/07/04 12:45:15;;;;;;;11.00;3.67;;;26.20;91.50;;;;;;7287915;19;20205;-80
2023/07/04 12:47:44;;;;;;;13.38;3.92;;;26.50;91.50;;;;;;7185330;19;2004599;-80